Waupaca, WI

3:54 PM CDT on July 06, 2015 (GMT -0500)
Waupaca_9er | | Change Station
CLOSE
Current Station
Personal Weather Station
Location: Waupaca, WI
Elevation: 919 ft
Nearby Weather Stations

Elev 919 ft 44.36 °N, 89.09 °W | Updated 7 seconds ago

Overcast
Overcast
77.5 °F
Feels Like 79 °F
N
6.9
Wind Variable Wind from South
Gusts 9.8 mph

Today
High -- | Low -- °F
--% Chance of Precip.
Yesterday
High -- | Low -- °F
Precip. -- in
5:18 AM 8:42 PM
Waning Gibbous, 72% visible
Pressure 29.81 in
Visibility 10.0 miles
Clouds Overcast 10000 ft
Heat Index 79 °F
Dew Point 74 °F
Humidity 88%
Rainfall 0.04 in
Snow Depth Not available.
UV 2 out of 12
Pollen .60 out of 12
Air Quality Not available.
Flu Activity Not available.
METAR KPCZ 062035Z AUTO 18007KT 10SM OVC100 27/21 A2981 RMK AO2 T02680209

More Conditions Fewer Conditions

Pressure 29.81 in
Visibility 10.0 miles
Clouds Overcast 10000 ft
Heat Index 79 °F
Dew Point 74 °F
Humidity 88%
Rainfall 0.04 in
Snow Depth Not available.
UV 2 out of 12
Pollen .60 out of 12
Air Quality Not available.
Flu Activity Not available.
METAR KPCZ 062035Z AUTO 18007KT 10SM OVC100 27/21 A2981 RMK AO2 T02680209

More Conditions Fewer Conditions

10-Day Weather Forecast

×

Almanac

Astronomy

Jul. 06, 2015 Rise Set
Actual Time
Civil Twilight
Nautical Twilight
Astronomical Twilight
Moon
Length of Visible Light
Length of Day
Tomorrow will be .
, % of the Moon is Illuminated

Today's Extremes

State Highs State Lows

Community

WunderPhotos

Upload Photos

1,835,638 photos uploaded!

WunderBlogs® & News

Nearby

Air Quality

  Air Quality AQ Index Pollutant
Not available.

Snow Depth

Station Depth Elevation

Earthquake Activity

City Distance Mag. Time & Date
Minimum magnitude displayed is 2.5.

Coastal Water Temperatures

Place Temperature

Stations

Nearby Weather Stations

Station Location Temp. Windchill Dew Point Humidity Wind Precip. Elev Updated Type